Time;durP1;ratioP1;P1;durP2;ratioP2;P2;SDS_P1;SDS_P2;PMS_P1;PMS_P2;Temp;Humidity;BMP_temperature;BMP_pressure;BME280_temperature;BME280_humidity;BME280_pressure;Samples;Min_cycle;Max_cycle;Signal;HPM_P1;HPM_P2
2023/12/06 00:01:34;;;;;;;9.20;4.35;;;;;;;;;;6144436;28;20906;-72
2023/12/06 00:04:37;;;;;;;7.50;4.78;;;;;;;;;;6164986;28;20098;-72
2023/12/06 00:07:39;;;;;;;7.68;4.25;;;;;;;;;;6161722;28;20182;-72
2023/12/06 00:10:41;;;;;;;8.77;4.28;;;;;;;;;;6162039;28;20059;-72
2023/12/06 00:13:45;;;;;;;7.90;4.47;;;;;;;;;;6161976;28;20579;-73
2023/12/06 00:16:47;;;;;;;8.93;5.03;;;;;;;;;;6144497;28;20520;-72
2023/12/06 00:19:49;;;;;;;6.80;4.45;;;;;;;;;;6161908;28;20050;-72
2023/12/06 00:22:53;;;;;;;7.93;3.55;;;;;;;;;;6158061;28;20132;-72
2023/12/06 00:25:55;;;;;;;7.07;4.30;;;;;;;;;;6161642;28;20049;-72
2023/12/06 00:28:57;;;;;;;9.50;5.50;;;;;;;;;;6151459;28;20507;-71
2023/12/06 00:31:59;;;;;;;8.35;4.40;;;;;;;;;;6142292;28;20083;-71
2023/12/06 00:35:02;;;;;;;8.05;4.32;;;;;;;;;;6160654;28;20059;-72
2023/12/06 00:38:05;;;;;;;10.73;4.80;;;;;;;;;;6176574;28;20049;-72
2023/12/06 00:41:08;;;;;;;8.52;5.75;;;;;;;;;;6219884;28;20048;-71
2023/12/06 00:44:11;;;;;;;7.72;5.40;;;;;;;;;;6224998;28;20281;-71
2023/12/06 00:47:14;;;;;;;6.97;4.43;;;;;;;;;;6219095;28;20037;-71
2023/12/06 00:50:16;;;;;;;9.90;4.95;;;;;;;;;;6231685;28;20045;-71
2023/12/06 00:53:18;;;;;;;8.63;5.15;;;;;;;;;;6231290;28;20128;-71
2023/12/06 00:56:20;;;;;;;7.18;3.90;;;;;;;;;;6222193;28;20046;-72
2023/12/06 00:59:22;;;;;;;8.57;4.65;;;;;;;;;;6212039;28;20041;-73
2023/12/06 01:02:25;;;;;;;7.03;4.57;;;;;;;;;;6219656;28;20077;-71
2023/12/06 01:05:27;;;;;;;9.00;5.40;;;;;;;;;;6237721;28;20183;-71
2023/12/06 01:08:29;;;;;;;9.13;6.57;;;;;;;;;;6204740;28;20042;-71
2023/12/06 01:11:31;;;;;;;8.70;4.18;;;;;;;;;;6230458;28;20041;-71
2023/12/06 01:14:33;;;;;;;8.35;4.32;;;;;;;;;;6200177;28;20108;-71
2023/12/06 01:17:35;;;;;;;7.80;5.03;;;;;;;;;;6228396;28;20062;-70
2023/12/06 01:20:38;;;;;;;8.02;5.60;;;;;;;;;;6228979;28;20052;-71
2023/12/06 01:23:40;;;;;;;9.02;6.03;;;;;;;;;;6204462;28;20123;-71
2023/12/06 01:26:42;;;;;;;8.02;4.82;;;;;;;;;;6221329;28;20975;-72
2023/12/06 01:29:44;;;;;;;8.35;4.88;;;;;;;;;;6227475;28;20049;-71
2023/12/06 01:32:50;;;;;;;8.43;4.28;;;;;;;;;;6216063;28;20048;-71
2023/12/06 01:35:52;;;;;;;10.13;5.18;;;;;;;;;;6201965;28;20049;-71
2023/12/06 01:38:54;;;;;;;8.32;5.00;;;;;;;;;;6226247;28;20649;-71
2023/12/06 01:41:57;;;;;;;9.00;4.70;;;;;;;;;;6217487;28;20046;-71
2023/12/06 01:44:59;;;;;;;10.95;6.05;;;;;;;;;;6210927;28;20038;-70
2023/12/06 01:48:02;;;;;;;7.82;5.18;;;;;;;;;;6225702;28;20115;-71
2023/12/06 01:51:05;;;;;;;10.98;7.38;;;;;;;;;;6232116;28;20037;-71
2023/12/06 01:54:08;;;;;;;6.85;3.50;;;;;;;;;;6209873;28;20168;-71
2023/12/06 01:57:10;;;;;;;7.55;4.30;;;;;;;;;;6215436;28;20049;-71
2023/12/06 02:00:13;;;;;;;9.10;4.70;;;;;;;;;;6196433;28;20096;-71
2023/12/06 02:03:15;;;;;;;7.90;4.35;;;;;;;;;;6212584;28;20046;-71
2023/12/06 02:06:21;;;;;;;7.25;3.83;;;;;;;;;;6215751;28;20046;-71
2023/12/06 02:09:23;;;;;;;7.10;4.68;;;;;;;;;;6223258;28;20046;-71
2023/12/06 02:12:25;;;;;;;7.68;5.00;;;;;;;;;;6209922;28;20143;-71
2023/12/06 02:15:27;;;;;;;11.65;5.05;;;;;;;;;;6217906;28;20053;-71
2023/12/06 02:18:30;;;;;;;8.82;4.30;;;;;;;;;;6203312;28;20037;-71
2023/12/06 02:21:32;;;;;;;9.10;5.57;;;;;;;;;;6198193;28;20644;-71
2023/12/06 02:24:35;;;;;;;8.35;5.90;;;;;;;;;;6230243;28;20058;-72
2023/12/06 02:27:43;;;;;;;6.53;4.97;;;;;;;;;;6220138;28;20064;-72
2023/12/06 02:30:45;;;;;;;8.50;4.90;;;;;;;;;;6228731;28;20049;-72
2023/12/06 02:33:48;;;;;;;7.70;5.72;;;;;;;;;;6216107;28;20656;-72
2023/12/06 02:36:53;;;;;;;10.55;5.28;;;;;;;;;;6222815;28;20050;-72
2023/12/06 02:39:56;;;;;;;9.38;4.80;;;;;;;;;;6216936;28;20037;-72
2023/12/06 02:42:58;;;;;;;6.97;4.60;;;;;;;;;;6211258;28;20048;-72
2023/12/06 02:46:01;;;;;;;9.50;4.93;;;;;;;;;;6234355;28;20468;-71
2023/12/06 02:49:03;;;;;;;7.55;3.83;;;;;;;;;;6229913;28;20053;-72
2023/12/06 02:52:06;;;;;;;8.82;5.03;;;;;;;;;;6227269;28;20095;-70
2023/12/06 02:55:09;;;;;;;6.05;3.70;;;;;;;;;;6234096;28;20050;-72
2023/12/06 02:58:11;;;;;;;7.40;4.45;;;;;;;;;;6222706;28;20226;-72
2023/12/06 03:01:13;;;;;;;8.30;3.97;;;;;;;;;;6216158;28;20041;-71
2023/12/06 03:04:16;;;;;;;7.55;5.03;;;;;;;;;;6223051;28;20120;-71
2023/12/06 03:07:18;;;;;;;6.97;4.00;;;;;;;;;;6224702;28;20132;-71
2023/12/06 03:10:20;;;;;;;7.70;4.25;;;;;;;;;;6226467;28;20050;-72
2023/12/06 03:13:22;;;;;;;7.57;4.22;;;;;;;;;;6222997;28;20060;-72
2023/12/06 03:16:26;;;;;;;6.82;4.22;;;;;;;;;;6190504;28;20135;-72
2023/12/06 03:19:29;;;;;;;8.15;3.50;;;;;;;;;;6198338;28;20469;-72
2023/12/06 03:22:31;;;;;;;7.32;4.07;;;;;;;;;;6230614;28;20046;-72
2023/12/06 03:25:35;;;;;;;7.72;3.63;;;;;;;;;;6214373;28;20086;-72
2023/12/06 03:28:37;;;;;;;5.10;3.22;;;;;;;;;;6212195;28;20534;-72
2023/12/06 03:31:40;;;;;;;6.18;3.42;;;;;;;;;;6209448;28;20061;-72
2023/12/06 03:34:42;;;;;;;6.93;4.47;;;;;;;;;;6209356;28;20099;-72
2023/12/06 03:37:44;;;;;;;6.25;4.63;;;;;;;;;;6232701;28;20187;-73
2023/12/06 03:40:46;;;;;;;7.18;3.97;;;;;;;;;;6225777;28;20046;-70
2023/12/06 03:43:48;;;;;;;7.13;3.90;;;;;;;;;;6228306;28;20045;-70
2023/12/06 03:47:04;;;;;;;6.63;4.28;;;;;;;;;;6215444;28;20049;-71
2023/12/06 03:50:09;;;;;;;5.65;3.83;;;;;;;;;;6219788;28;20626;-72
2023/12/06 03:53:12;;;;;;;5.78;3.53;;;;;;;;;;6224838;28;20061;-72
2023/12/06 03:56:14;;;;;;;6.00;3.58;;;;;;;;;;6228782;28;20060;-71
2023/12/06 03:59:18;;;;;;;6.05;4.00;;;;;;;;;;6231972;28;20184;-71
2023/12/06 04:02:20;;;;;;;6.70;3.22;;;;;;;;;;6231017;28;20154;-72
2023/12/06 04:05:23;;;;;;;6.57;4.45;;;;;;;;;;6220304;28;20156;-72
2023/12/06 04:08:25;;;;;;;6.28;4.63;;;;;;;;;;6225508;28;20042;-71
2023/12/06 04:11:28;;;;;;;5.85;3.53;;;;;;;;;;6228547;28;20041;-71
2023/12/06 04:14:30;;;;;;;6.55;3.55;;;;;;;;;;6228715;28;20079;-72
2023/12/06 04:17:32;;;;;;;6.22;4.18;;;;;;;;;;6228500;28;20053;-71
2023/12/06 04:20:35;;;;;;;4.87;3.77;;;;;;;;;;6204112;28;20072;-69
2023/12/06 04:23:38;;;;;;;4.93;3.60;;;;;;;;;;6222910;28;20054;-71
2023/12/06 04:26:40;;;;;;;6.68;3.88;;;;;;;;;;6225634;28;20045;-71
2023/12/06 04:29:46;;;;;;;5.95;4.28;;;;;;;;;;6217988;28;20062;-71
2023/12/06 04:32:49;;;;;;;8.15;3.83;;;;;;;;;;6227264;28;20046;-71
2023/12/06 04:35:51;;;;;;;5.80;3.80;;;;;;;;;;6209033;28;20088;-71
2023/12/06 04:38:53;;;;;;;9.60;4.30;;;;;;;;;;6234929;28;20182;-72
2023/12/06 04:41:55;;;;;;;5.70;3.65;;;;;;;;;;6235655;28;20053;-71
2023/12/06 04:44:57;;;;;;;5.28;3.33;;;;;;;;;;6216158;28;20041;-71
2023/12/06 04:48:01;;;;;;;4.80;2.95;;;;;;;;;;6221090;28;20062;-71
2023/12/06 04:51:04;;;;;;;6.45;4.72;;;;;;;;;;6229479;28;20138;-71
2023/12/06 04:54:06;;;;;;;4.70;3.25;;;;;;;;;;6220834;28;20062;-71
2023/12/06 04:57:08;;;;;;;6.07;3.33;;;;;;;;;;6226452;28;20057;-72
2023/12/06 05:00:12;;;;;;;6.10;4.15;;;;;;;;;;6216786;28;20049;-72
2023/12/06 05:03:14;;;;;;;5.28;3.90;;;;;;;;;;6226651;28;20038;-71
2023/12/06 05:06:17;;;;;;;6.60;2.90;;;;;;;;;;6220220;28;20037;-72
2023/12/06 05:09:20;;;;;;;7.88;3.22;;;;;;;;;;6231229;28;20067;-72
2023/12/06 05:12:22;;;;;;;5.10;3.67;;;;;;;;;;6225671;28;20037;-72
2023/12/06 05:15:24;;;;;;;7.35;3.13;;;;;;;;;;6222987;28;20081;-72
2023/12/06 05:18:28;;;;;;;6.72;3.58;;;;;;;;;;6225973;28;20723;-72
2023/12/06 05:21:30;;;;;;;6.57;3.95;;;;;;;;;;6230243;28;20054;-72
2023/12/06 05:24:33;;;;;;;4.35;3.05;;;;;;;;;;6233484;28;20056;-72
2023/12/06 05:27:35;;;;;;;4.57;2.55;;;;;;;;;;6225969;28;20411;-72
2023/12/06 05:30:37;;;;;;;4.95;3.40;;;;;;;;;;6213728;28;20049;-72
2023/12/06 05:33:39;;;;;;;5.50;3.88;;;;;;;;;;6222423;28;20519;-73
2023/12/06 05:36:42;;;;;;;4.10;2.75;;;;;;;;;;6212505;28;20053;-72
2023/12/06 05:39:45;;;;;;;4.70;3.10;;;;;;;;;;6227372;28;20773;-72
2023/12/06 05:42:47;;;;;;;6.63;3.80;;;;;;;;;;6229054;28;20057;-71
2023/12/06 05:45:50;;;;;;;5.82;3.45;;;;;;;;;;6232342;28;20044;-73
2023/12/06 05:48:53;;;;;;;5.45;4.55;;;;;;;;;;6229320;28;20152;-73
2023/12/06 05:51:56;;;;;;;4.10;2.90;;;;;;;;;;6209533;28;20049;-72
2023/12/06 05:54:59;;;;;;;5.28;3.17;;;;;;;;;;6229858;28;20052;-72
2023/12/06 05:58:03;;;;;;;6.82;4.82;;;;;;;;;;6219939;28;20049;-72
2023/12/06 06:01:07;;;;;;;7.65;4.35;;;;;;;;;;6230919;28;20052;-72
2023/12/06 06:04:10;;;;;;;5.53;3.50;;;;;;;;;;6222365;28;20530;-72
2023/12/06 06:07:12;;;;;;;6.25;4.32;;;;;;;;;;6217447;28;20129;-72
2023/12/06 06:10:14;;;;;;;5.78;3.38;;;;;;;;;;6216263;28;20110;-72
2023/12/06 06:13:16;;;;;;;6.22;3.83;;;;;;;;;;6219589;28;20044;-72
2023/12/06 06:16:18;;;;;;;6.30;3.95;;;;;;;;;;6220746;28;20037;-72
2023/12/06 06:19:20;;;;;;;6.15;3.88;;;;;;;;;;6219510;28;20045;-72
2023/12/06 06:22:22;;;;;;;6.20;3.55;;;;;;;;;;6232511;28;20757;-72
2023/12/06 06:25:25;;;;;;;8.23;5.30;;;;;;;;;;6232424;28;20064;-72
2023/12/06 06:28:27;;;;;;;6.75;4.88;;;;;;;;;;6222048;28;20057;-72
2023/12/06 06:31:29;;;;;;;8.18;4.82;;;;;;;;;;6226605;28;20919;-72
2023/12/06 06:34:32;;;;;;;7.18;4.88;;;;;;;;;;6207254;28;20057;-72
2023/12/06 06:37:34;;;;;;;69.30;43.70;;;;;;;;;;6180657;28;20173;-73
2023/12/06 06:40:37;;;;;;;22.30;14.73;;;;;;;;;;6229517;28;20042;-72
2023/12/06 06:43:39;;;;;;;13.30;8.43;;;;;;;;;;6213005;28;20616;-73
2023/12/06 06:46:41;;;;;;;8.80;5.88;;;;;;;;;;6208849;28;20929;-73
2023/12/06 06:49:45;;;;;;;8.90;5.03;;;;;;;;;;6223721;28;20648;-72
2023/12/06 06:52:47;;;;;;;8.60;5.95;;;;;;;;;;6217682;28;20184;-72
2023/12/06 06:55:49;;;;;;;7.78;4.93;;;;;;;;;;6217114;28;20061;-72
2023/12/06 06:58:52;;;;;;;9.55;6.72;;;;;;;;;;6221983;28;20091;-72
2023/12/06 07:01:54;;;;;;;7.85;5.07;;;;;;;;;;6190730;28;20511;-72
2023/12/06 07:04:56;;;;;;;9.25;6.47;;;;;;;;;;6225464;28;20438;-72
2023/12/06 07:08:00;;;;;;;11.15;6.28;;;;;;;;;;6192600;28;20050;-72
2023/12/06 07:11:04;;;;;;;10.90;5.72;;;;;;;;;;6223461;28;20468;-72
2023/12/06 07:14:06;;;;;;;12.35;6.40;;;;;;;;;;6211786;28;20042;-72
2023/12/06 07:17:08;;;;;;;12.25;7.10;;;;;;;;;;6225944;28;20046;-72
2023/12/06 07:20:12;;;;;;;13.82;8.02;;;;;;;;;;6223328;28;20130;-72
2023/12/06 07:23:14;;;;;;;19.17;9.40;;;;;;;;;;6220288;28;20045;-72
2023/12/06 07:26:18;;;;;;;14.32;7.28;;;;;;;;;;6223857;28;20065;-72
2023/12/06 07:29:20;;;;;;;14.45;7.90;;;;;;;;;;6223382;28;20515;-72
2023/12/06 07:32:22;;;;;;;11.88;7.70;;;;;;;;;;6211502;28;20042;-71
2023/12/06 07:35:25;;;;;;;11.02;6.22;;;;;;;;;;6210371;28;20049;-71
2023/12/06 07:38:28;;;;;;;12.25;7.25;;;;;;;;;;6235573;28;20072;-71
2023/12/06 07:41:30;;;;;;;11.75;6.97;;;;;;;;;;6230961;28;20048;-71
2023/12/06 07:44:34;;;;;;;11.82;7.25;;;;;;;;;;6216246;28;20046;-71
2023/12/06 07:47:36;;;;;;;14.98;8.07;;;;;;;;;;6216376;28;20049;-72
2023/12/06 07:50:38;;;;;;;14.07;7.85;;;;;;;;;;6206028;28;20111;-72
2023/12/06 07:53:41;;;;;;;13.55;8.07;;;;;;;;;;6234211;28;20210;-72
2023/12/06 07:56:44;;;;;;;17.77;8.40;;;;;;;;;;6233813;28;20049;-72
2023/12/06 07:59:47;;;;;;;12.88;7.78;;;;;;;;;;6206107;28;20050;-72
2023/12/06 08:02:50;;;;;;;15.35;9.75;;;;;;;;;;6231249;28;20854;-72
2023/12/06 08:05:52;;;;;;;14.13;8.35;;;;;;;;;;6226248;28;20038;-72
2023/12/06 08:08:55;;;;;;;17.27;11.27;;;;;;;;;;6231933;28;20065;-72
2023/12/06 08:11:58;;;;;;;15.35;10.30;;;;;;;;;;6216423;28;20057;-72
2023/12/06 08:15:04;;;;;;;15.07;8.98;;;;;;;;;;6230720;28;20137;-72
2023/12/06 08:18:07;;;;;;;13.80;8.18;;;;;;;;;;6207947;28;20049;-71
2023/12/06 08:21:09;;;;;;;13.73;7.80;;;;;;;;;;6223742;28;20060;-72
2023/12/06 08:24:11;;;;;;;12.95;8.23;;;;;;;;;;6217745;28;20038;-71
2023/12/06 08:27:14;;;;;;;24.23;12.57;;;;;;;;;;6226921;28;20054;-72
2023/12/06 08:30:17;;;;;;;17.13;8.90;;;;;;;;;;6204046;28;20053;-72
2023/12/06 08:33:19;;;;;;;21.10;14.43;;;;;;;;;;6230022;28;20054;-72
2023/12/06 08:36:21;;;;;;;19.05;11.65;;;;;;;;;;6219478;28;20042;-72
2023/12/06 08:39:23;;;;;;;36.90;21.73;;;;;;;;;;6232721;28;20507;-72
2023/12/06 08:42:26;;;;;;;37.08;20.88;;;;;;;;;;6214844;28;20416;-72
2023/12/06 08:45:28;;;;;;;77.53;39.85;;;;;;;;;;6226073;28;20061;-72
2023/12/06 08:48:32;;;;;;;85.10;44.70;;;;;;;;;;6227243;28;20057;-73
2023/12/06 08:51:34;;;;;;;55.22;30.17;;;;;;;;;;6227239;28;20052;-73
2023/12/06 08:54:39;;;;;;;30.42;19.38;;;;;;;;;;6211145;28;20132;-72
2023/12/06 08:57:41;;;;;;;31.52;20.05;;;;;;;;;;6225431;28;20168;-72
2023/12/06 09:00:43;;;;;;;28.08;19.30;;;;;;;;;;6224754;28;20074;-72
2023/12/06 09:03:46;;;;;;;24.27;18.05;;;;;;;;;;6221667;28;20044;-73
2023/12/06 09:06:48;;;;;;;20.17;14.32;;;;;;;;;;6228946;28;20742;-71
2023/12/06 09:09:51;;;;;;;26.75;16.38;;;;;;;;;;6227380;28;20053;-73
2023/12/06 09:12:52;;;;;;;16.88;10.90;;;;;;;;;;6228488;28;20041;-72
2023/12/06 09:15:55;;;;;;;20.63;11.73;;;;;;;;;;6212022;28;20049;-73
2023/12/06 09:18:57;;;;;;;22.38;12.75;;;;;;;;;;6211283;28;20076;-72
2023/12/06 09:22:00;;;;;;;14.90;8.77;;;;;;;;;;6215752;28;20037;-72
2023/12/06 09:25:04;;;;;;;17.08;10.27;;;;;;;;;;6222969;28;20187;-72
2023/12/06 09:28:10;;;;;;;17.10;11.07;;;;;;;;;;6225217;28;20049;-72
2023/12/06 09:31:13;;;;;;;14.27;10.25;;;;;;;;;;6221223;28;20191;-72
2023/12/06 09:34:15;;;;;;;26.05;13.43;;;;;;;;;;6228999;28;20053;-72
2023/12/06 09:37:31;;;;;;;17.30;11.15;;;;;;;;;;6231338;28;20038;-72
2023/12/06 09:40:33;;;;;;;15.15;9.50;;;;;;;;;;6192867;28;20412;-72
2023/12/06 09:43:36;;;;;;;17.40;10.50;;;;;;;;;;6205214;28;20131;-72
2023/12/06 09:46:41;;;;;;;16.63;11.48;;;;;;;;;;6231311;28;20104;-72
2023/12/06 09:49:44;;;;;;;20.70;10.68;;;;;;;;;;6210212;28;20042;-73
2023/12/06 09:52:53;;;;;;;14.98;9.85;;;;;;;;;;6222576;28;20061;-72
2023/12/06 09:55:55;;;;;;;8.98;5.68;;;;;;;;;;6222187;28;20083;-72
2023/12/06 09:58:57;;;;;;;5.82;3.42;;;;;;;;;;6222281;28;20052;-71
2023/12/06 10:01:59;;;;;;;5.82;3.90;;;;;;;;;;6231792;28;20356;-73
2023/12/06 10:05:02;;;;;;;6.22;3.72;;;;;;;;;;6205602;28;20073;-73
2023/12/06 10:08:05;;;;;;;6.38;3.25;;;;;;;;;;6228308;28;20075;-72
2023/12/06 10:11:08;;;;;;;6.10;3.42;;;;;;;;;;6209307;28;20822;-72
2023/12/06 10:14:21;;;;;;;6.57;3.60;;;;;;;;;;6215045;28;20095;-72
2023/12/06 10:17:23;;;;;;;5.32;3.30;;;;;;;;;;6212460;28;20057;-72
2023/12/06 10:20:25;;;;;;;6.00;3.97;;;;;;;;;;6228873;28;20049;-73
2023/12/06 10:23:30;;;;;;;5.35;2.35;;;;;;;;;;6204781;28;20045;-72
2023/12/06 10:26:32;;;;;;;6.75;3.50;;;;;;;;;;6229128;28;20547;-72
2023/12/06 10:29:34;;;;;;;5.95;4.63;;;;;;;;;;6202993;28;20118;-72
2023/12/06 10:32:36;;;;;;;4.93;2.95;;;;;;;;;;6226881;28;20561;-72
2023/12/06 10:35:39;;;;;;;4.55;2.80;;;;;;;;;;6215004;28;20046;-72
2023/12/06 10:38:42;;;;;;;4.60;2.53;;;;;;;;;;6197895;28;20520;-74
2023/12/06 10:41:48;;;;;;;5.82;3.08;;;;;;;;;;6209824;28;20207;-72
2023/12/06 10:44:51;;;;;;;5.25;2.78;;;;;;;;;;6197142;28;20559;-72
2023/12/06 10:47:55;;;;;;;5.18;2.00;;;;;;;;;;6209237;28;20559;-72
2023/12/06 10:50:59;;;;;;;4.43;3.20;;;;;;;;;;6192879;28;20042;-73
2023/12/06 10:54:01;;;;;;;5.05;3.50;;;;;;;;;;6209366;28;20726;-72
2023/12/06 10:57:04;;;;;;;5.90;3.05;;;;;;;;;;6200931;28;20136;-72
2023/12/06 11:00:07;;;;;;;6.22;4.25;;;;;;;;;;6204439;28;20870;-72
2023/12/06 11:03:12;;;;;;;4.68;2.53;;;;;;;;;;6202958;28;20442;-72
2023/12/06 11:06:27;;;;;;;5.25;3.35;;;;;;;;;;6231580;28;20045;-73
2023/12/06 11:09:55;;;;;;;6.45;5.15;;;;;;;;;;6225890;28;20044;-73
2023/12/06 11:13:20;;;;;;;5.80;3.35;;;;;;;;;;6222889;28;20072;-73
2023/12/06 11:17:20;;;;;;;6.10;2.90;;;;;;;;;;6220209;28;20041;-73
2023/12/06 11:20:24;;;;;;;7.93;5.05;;;;;;;;;;6180269;28;20053;-73
2023/12/06 11:23:27;;;;;;;8.25;5.13;;;;;;;;;;6194372;28;20054;-73
2023/12/06 11:26:29;;;;;;;6.82;4.35;;;;;;;;;;6219773;28;20041;-73
2023/12/06 11:29:31;;;;;;;5.35;3.15;;;;;;;;;;6206383;28;20223;-73
2023/12/06 11:32:41;;;;;;;5.80;3.88;;;;;;;;;;6232133;28;20067;-73
2023/12/06 11:35:53;;;;;;;6.43;3.75;;;;;;;;;;6232199;28;20164;-74
2023/12/06 11:38:55;;;;;;;4.97;3.22;;;;;;;;;;6213719;28;20272;-73
2023/12/06 11:41:59;;;;;;;5.35;3.22;;;;;;;;;;6213506;28;20046;-73
2023/12/06 11:45:01;;;;;;;5.32;3.95;;;;;;;;;;6229651;28;20799;-72
2023/12/06 11:48:05;;;;;;;6.38;3.92;;;;;;;;;;6211027;28;20045;-73
2023/12/06 11:51:07;;;;;;;8.90;4.75;;;;;;;;;;6205745;28;20041;-72
2023/12/06 11:54:11;;;;;;;4.47;3.08;;;;;;;;;;6198580;28;20053;-72
2023/12/06 11:57:15;;;;;;;7.50;4.88;;;;;;;;;;6211058;28;20096;-73
2023/12/06 12:00:17;;;;;;;6.55;4.88;;;;;;;;;;6223532;28;20064;-74
2023/12/06 12:03:21;;;;;;;7.32;5.10;;;;;;;;;;6233045;28;20052;-74
2023/12/06 12:06:27;;;;;;;6.68;4.53;;;;;;;;;;6207846;28;20049;-73
2023/12/06 12:09:30;;;;;;;8.85;5.10;;;;;;;;;;6228604;28;20065;-73
2023/12/06 12:12:37;;;;;;;7.85;5.32;;;;;;;;;;6207870;28;20072;-73
2023/12/06 12:15:40;;;;;;;8.52;5.80;;;;;;;;;;6226229;28;20053;-74
2023/12/06 12:18:42;;;;;;;6.85;4.95;;;;;;;;;;6232952;28;20050;-72
2023/12/06 12:21:46;;;;;;;7.43;4.85;;;;;;;;;;6213646;28;20048;-73
2023/12/06 12:24:51;;;;;;;12.43;7.45;;;;;;;;;;6205060;28;20155;-73
2023/12/06 12:27:53;;;;;;;11.93;7.38;;;;;;;;;;6225789;28;20050;-73
2023/12/06 12:31:04;;;;;;;9.93;6.25;;;;;;;;;;6202006;28;20045;-73
2023/12/06 12:34:07;;;;;;;10.85;9.48;;;;;;;;;;6225694;28;20052;-73
2023/12/06 12:37:09;;;;;;;21.25;11.88;;;;;;;;;;6219301;28;20053;-73
2023/12/06 12:40:11;;;;;;;13.65;10.23;;;;;;;;;;6213587;28;20144;-73
2023/12/06 12:43:13;;;;;;;10.75;8.05;;;;;;;;;;6214109;28;20582;-73
2023/12/06 12:46:15;;;;;;;10.00;6.93;;;;;;;;;;6229592;28;20056;-73
2023/12/06 12:49:18;;;;;;;10.60;5.65;;;;;;;;;;6204256;28;20060;-73
2023/12/06 12:52:21;;;;;;;12.13;7.80;;;;;;;;;;6217743;28;20156;-73
2023/12/06 12:55:25;;;;;;;13.10;8.80;;;;;;;;;;6210365;28;20042;-72
2023/12/06 12:58:27;;;;;;;7.43;5.45;;;;;;;;;;6205448;28;20357;-73
2023/12/06 13:01:31;;;;;;;7.90;5.20;;;;;;;;;;6223403;28;20042;-73
2023/12/06 13:04:33;;;;;;;24.25;14.80;;;;;;;;;;6223201;28;20042;-73
2023/12/06 13:07:35;;;;;;;8.02;5.43;;;;;;;;;;6216016;28;20046;-73
2023/12/06 13:10:40;;;;;;;9.32;6.35;;;;;;;;;;6217249;28;20050;-73
2023/12/06 13:13:42;;;;;;;14.43;6.97;;;;;;;;;;6225059;28;20069;-74
2023/12/06 13:16:45;;;;;;;7.25;4.45;;;;;;;;;;6225137;28;20152;-73
2023/12/06 13:19:47;;;;;;;10.57;6.13;;;;;;;;;;6221278;28;20119;-74
2023/12/06 13:22:50;;;;;;;8.38;6.43;;;;;;;;;;6206501;28;20136;-73
2023/12/06 13:25:52;;;;;;;7.85;5.70;;;;;;;;;;6214202;28;20046;-74
2023/12/06 13:28:54;;;;;;;7.57;4.50;;;;;;;;;;6191336;28;20049;-74
2023/12/06 13:31:56;;;;;;;7.82;4.55;;;;;;;;;;6225001;28;20416;-74
2023/12/06 13:34:58;;;;;;;24.23;12.15;;;;;;;;;;6229121;28;20053;-74
2023/12/06 13:38:02;;;;;;;8.57;5.15;;;;;;;;;;6228606;28;20045;-74
2023/12/06 13:41:05;;;;;;;8.40;4.00;;;;;;;;;;6223496;28;20045;-74
2023/12/06 13:44:07;;;;;;;51.80;32.42;;;;;;;;;;6236446;28;20188;-73
2023/12/06 13:47:10;;;;;;;10.60;6.22;;;;;;;;;;6223542;28;20045;-74
2023/12/06 13:50:13;;;;;;;9.82;4.95;;;;;;;;;;6198622;28;20049;-74
2023/12/06 13:53:16;;;;;;;13.32;10.02;;;;;;;;;;6230253;28;20047;-74
2023/12/06 13:56:19;;;;;;;9.38;6.53;;;;;;;;;;6224227;28;20115;-73
2023/12/06 13:59:21;;;;;;;9.63;6.28;;;;;;;;;;6226502;28;20510;-73
2023/12/06 14:02:23;;;;;;;5.78;2.78;;;;;;;;;;6224689;28;20037;-74
2023/12/06 14:05:26;;;;;;;7.85;3.13;;;;;;;;;;6230532;28;20590;-73
2023/12/06 14:08:29;;;;;;;8.40;3.50;;;;;;;;;;6227338;28;20600;-74
2023/12/06 14:11:31;;;;;;;7.57;4.30;;;;;;;;;;6202393;28;20554;-73
2023/12/06 14:14:34;;;;;;;7.70;6.13;;;;;;;;;;6219868;28;20033;-73
2023/12/06 14:17:36;;;;;;;12.05;7.28;;;;;;;;;;6226501;28;20910;-75
2023/12/06 14:20:39;;;;;;;12.65;8.07;;;;;;;;;;6229893;28;20038;-73
2023/12/06 14:23:41;;;;;;;7.95;4.57;;;;;;;;;;6225484;28;20562;-72
2023/12/06 14:26:43;;;;;;;6.88;4.28;;;;;;;;;;6221444;28;20430;-73
2023/12/06 14:29:45;;;;;;;8.23;5.38;;;;;;;;;;6224356;28;20713;-73
2023/12/06 14:32:47;;;;;;;9.38;4.80;;;;;;;;;;6175187;28;20081;-73
2023/12/06 14:35:49;;;;;;;8.10;4.53;;;;;;;;;;6214037;28;20045;-73
2023/12/06 14:38:52;;;;;;;7.80;6.50;;;;;;;;;;6208697;28;20045;-74
2023/12/06 14:41:54;;;;;;;7.07;4.25;;;;;;;;;;6236723;28;20060;-73
2023/12/06 14:44:58;;;;;;;9.98;6.00;;;;;;;;;;6220375;28;20615;-73
2023/12/06 14:48:01;;;;;;;11.68;6.05;;;;;;;;;;6237748;28;20585;-73
2023/12/06 14:51:04;;;;;;;6.50;2.60;;;;;;;;;;6237413;28;20049;-74
2023/12/06 14:54:06;;;;;;;6.50;3.88;;;;;;;;;;6238861;28;20144;-73
2023/12/06 14:57:09;;;;;;;5.88;4.00;;;;;;;;;;6191135;28;20049;-74
2023/12/06 15:00:14;;;;;;;9.20;6.75;;;;;;;;;;6221901;28;20848;-73
2023/12/06 15:03:16;;;;;;;11.90;6.88;;;;;;;;;;6226824;28;20549;-74
2023/12/06 15:06:19;;;;;;;10.20;7.07;;;;;;;;;;6235658;28;20737;-74
2023/12/06 15:09:22;;;;;;;5.43;3.80;;;;;;;;;;6232593;28;20042;-74
2023/12/06 15:12:24;;;;;;;4.78;3.30;;;;;;;;;;6224902;28;20132;-74
2023/12/06 15:15:28;;;;;;;4.50;2.78;;;;;;;;;;6229801;28;20121;-74
2023/12/06 15:18:30;;;;;;;6.90;5.15;;;;;;;;;;6239055;28;20041;-74
2023/12/06 15:21:33;;;;;;;9.48;5.43;;;;;;;;;;6223995;28;20957;-74
2023/12/06 15:24:37;;;;;;;14.80;9.50;;;;;;;;;;6218320;28;20050;-74
2023/12/06 15:27:41;;;;;;;5.43;4.18;;;;;;;;;;6226623;28;20171;-74
2023/12/06 15:30:43;;;;;;;6.25;4.53;;;;;;;;;;6201515;28;20083;-74
2023/12/06 15:33:46;;;;;;;6.07;3.50;;;;;;;;;;6235678;28;20048;-73
2023/12/06 15:36:48;;;;;;;7.22;4.00;;;;;;;;;;6223653;28;20563;-75
2023/12/06 15:39:52;;;;;;;6.75;5.85;;;;;;;;;;6226091;28;20049;-75
2023/12/06 15:42:55;;;;;;;8.20;6.90;;;;;;;;;;6217064;28;20057;-74
2023/12/06 15:45:57;;;;;;;8.30;4.35;;;;;;;;;;6227089;28;20080;-74
2023/12/06 15:49:01;;;;;;;8.23;5.10;;;;;;;;;;6233958;28;20048;-73
2023/12/06 15:52:04;;;;;;;11.32;5.65;;;;;;;;;;6213525;28;20522;-73
2023/12/06 15:55:08;;;;;;;13.50;8.90;;;;;;;;;;6226300;28;20046;-73
2023/12/06 15:58:10;;;;;;;15.90;10.68;;;;;;;;;;6219337;28;20107;-73
2023/12/06 16:01:13;;;;;;;17.48;11.07;;;;;;;;;;6216433;28;20041;-73
2023/12/06 16:04:15;;;;;;;21.17;13.80;;;;;;;;;;6206537;28;20155;-74
2023/12/06 16:07:18;;;;;;;16.00;11.07;;;;;;;;;;6223576;28;20120;-73
2023/12/06 16:10:22;;;;;;;14.68;9.75;;;;;;;;;;6230868;28;20068;-74
2023/12/06 16:13:38;;;;;;;9.32;6.57;;;;;;;;;;6229146;28;20099;-74
2023/12/06 16:16:40;;;;;;;10.02;7.15;;;;;;;;;;6219130;28;20537;-75
2023/12/06 16:19:42;;;;;;;5.88;3.67;;;;;;;;;;6231461;28;20033;-75
2023/12/06 16:22:44;;;;;;;5.18;3.03;;;;;;;;;;6219446;28;20046;-74
2023/12/06 16:25:48;;;;;;;3.78;2.47;;;;;;;;;;6228634;28;20038;-72
2023/12/06 16:28:50;;;;;;;3.67;2.55;;;;;;;;;;6215929;28;20725;-74
2023/12/06 16:31:52;;;;;;;5.22;2.85;;;;;;;;;;6228730;28;20042;-75
2023/12/06 16:34:54;;;;;;;3.83;2.97;;;;;;;;;;6214784;28;20067;-74
2023/12/06 16:37:56;;;;;;;3.22;2.33;;;;;;;;;;6229229;28;20759;-74
2023/12/06 16:40:58;;;;;;;3.00;2.10;;;;;;;;;;6225649;28;20049;-74
2023/12/06 16:44:01;;;;;;;3.85;2.63;;;;;;;;;;6209734;28;20140;-74
2023/12/06 16:47:03;;;;;;;4.53;2.47;;;;;;;;;;6208470;28;20064;-75
2023/12/06 16:50:06;;;;;;;4.70;2.70;;;;;;;;;;6223448;28;20789;-74
2023/12/06 16:53:09;;;;;;;4.43;3.00;;;;;;;;;;6234211;28;20052;-75
2023/12/06 16:56:12;;;;;;;4.47;2.65;;;;;;;;;;6211597;28;20044;-74
2023/12/06 16:59:14;;;;;;;3.47;1.90;;;;;;;;;;6222146;28;20451;-75
2023/12/06 17:02:16;;;;;;;4.50;2.50;;;;;;;;;;6226070;28;20515;-74
2023/12/06 17:05:18;;;;;;;7.50;2.47;;;;;;;;;;6193634;28;20049;-74
2023/12/06 17:08:24;;;;;;;10.18;7.97;;;;;;;;;;6226607;28;20182;-75
2023/12/06 17:11:27;;;;;;;;;;;;;;;;;;6233569;28;20044;-75
2023/12/06 17:14:29;;;;;;;10.90;6.95;;;;;;;;;;6232900;28;19948;-73
2023/12/06 17:17:31;;;;;;;20.23;11.35;;;;;;;;;;6205772;28;20057;-73
2023/12/06 17:20:34;;;;;;;11.95;7.07;;;;;;;;;;6225343;28;20589;-73
2023/12/06 17:23:36;;;;;;;9.15;7.13;;;;;;;;;;6231681;28;20076;-75
2023/12/06 17:26:38;;;;;;;8.15;6.97;;;;;;;;;;6232467;28;20049;-76
2023/12/06 17:29:52;;;;;;;5.93;3.70;;;;;;;;;;6204383;28;20042;-74
2023/12/06 17:32:55;;;;;;;6.13;3.55;;;;;;;;;;6227472;28;20053;-72
2023/12/06 17:35:57;;;;;;;6.22;4.05;;;;;;;;;;6211050;28;20045;-74
2023/12/06 17:38:59;;;;;;;5.28;3.42;;;;;;;;;;6228948;28;20136;-73
2023/12/06 17:42:02;;;;;;;4.70;3.33;;;;;;;;;;6207470;28;20053;-74
2023/12/06 17:45:04;;;;;;;7.10;5.25;;;;;;;;;;6232641;28;20043;-73
2023/12/06 17:48:07;;;;;;;8.93;5.90;;;;;;;;;;6212040;28;20041;-74
2023/12/06 17:51:09;;;;;;;9.18;4.97;;;;;;;;;;6228759;28;20514;-74
2023/12/06 17:54:12;;;;;;;10.27;5.97;;;;;;;;;;6217720;28;20046;-73
2023/12/06 17:57:14;;;;;;;8.73;5.28;;;;;;;;;;6190610;28;20042;-73
2023/12/06 18:00:16;;;;;;;7.45;4.65;;;;;;;;;;6198346;28;20142;-74
2023/12/06 18:03:22;;;;;;;6.03;3.83;;;;;;;;;;6225310;28;20041;-74
2023/12/06 18:06:24;;;;;;;6.28;3.38;;;;;;;;;;6229066;28;20654;-74
2023/12/06 18:09:26;;;;;;;7.40;3.22;;;;;;;;;;6226068;28;20045;-74
2023/12/06 18:12:31;;;;;;;5.20;3.28;;;;;;;;;;6214741;28;20053;-73